Time;durP1;ratioP1;P1;durP2;ratioP2;P2;SDS_P1;SDS_P2;PMS_P1;PMS_P2;Temp;Humidity;BMP_temperature;BMP_pressure;BME280_temperature;BME280_humidity;BME280_pressure;Samples;Min_cycle;Max_cycle;Signal;HPM_P1;HPM_P2
2022/12/13 00:01:38;;;;;;;25.27;16.27;;;;;;;-1.14;54.84;98192.38;6989133;28;20674;-81
2022/12/13 00:05:00;;;;;;;25.37;15.13;;;;;;;-1.17;55.52;98196.16;6989014;28;20213;-81
2022/12/13 00:08:23;;;;;;;27.67;15.97;;;;;;;-0.70;54.96;98180.94;6989277;28;20234;-82
2022/12/13 00:11:45;;;;;;;24.13;15.03;;;;;;;-0.63;53.61;98203.19;6989105;28;20199;-82
2022/12/13 00:15:08;;;;;;;25.90;14.80;;;;;;;-0.79;53.70;98173.91;6987903;28;20211;-81
2022/12/13 00:18:35;;;;;;;24.30;14.23;;;;;;;-0.90;53.94;98190.00;6989244;28;20679;-80
2022/12/13 00:21:57;;;;;;;24.17;15.83;;;;;;;-0.83;53.82;98186.59;6987211;28;20229;-81
2022/12/13 00:25:20;;;;;;;24.40;15.77;;;;;;;-1.04;54.25;98187.84;6987442;28;20211;-81
2022/12/13 00:28:48;;;;;;;26.83;14.97;;;;;;;-0.96;54.52;98191.41;6988496;28;20232;-81
2022/12/13 00:32:13;;;;;;;26.00;15.80;;;;;;;-1.08;54.49;98179.38;6982679;28;20213;-81
2022/12/13 00:35:40;;;;;;;23.87;15.00;;;;;;;-1.34;53.36;98144.06;6986980;28;20206;-82
2022/12/13 00:39:01;;;;;;;24.23;14.53;;;;;;;-1.52;54.86;98187.25;6987343;28;20221;-81
2022/12/13 00:42:25;;;;;;;28.13;15.20;;;;;;;-1.46;54.04;98171.66;6985963;28;20604;-81
2022/12/13 00:45:47;;;;;;;24.83;15.03;;;;;;;-1.33;54.28;98184.53;6985934;28;20230;-81
2022/12/13 00:49:10;;;;;;;24.50;15.07;;;;;;;-1.37;53.77;98172.59;6987246;28;20226;-81
2022/12/13 00:52:33;;;;;;;22.13;14.60;;;;;;;-1.16;53.65;98174.00;6987535;28;20214;-81
2022/12/13 00:55:54;;;;;;;25.73;14.80;;;;;;;-1.39;53.64;98159.53;6985843;28;20221;-83
2022/12/13 00:59:17;;;;;;;23.20;15.53;;;;;;;-2.16;54.60;98137.00;6987326;28;20234;-81
2022/12/13 01:02:42;;;;;;;30.23;16.60;;;;;;;-1.92;54.79;98163.75;6987352;28;20216;-85
2022/12/13 01:06:09;;;;;;;28.90;15.27;;;;;;;-1.43;54.64;98144.91;6986714;28;20278;-81
2022/12/13 01:09:32;;;;;;;27.37;16.63;;;;;;;-1.71;55.39;98123.94;6987686;28;20237;-81
2022/12/13 01:12:54;;;;;;;26.27;16.13;;;;;;;-1.74;55.25;98161.19;6987960;28;20213;-82
2022/12/13 01:16:17;;;;;;;27.83;15.90;;;;;;;-1.88;54.85;98083.25;6986806;28;20202;-81
2022/12/13 01:19:39;;;;;;;20.97;13.87;;;;;;;-1.17;53.84;98158.28;6986751;28;20276;-81
2022/12/13 01:23:01;;;;;;;24.43;15.80;;;;;;;-2.28;54.03;98095.06;6987866;28;20219;-82
2022/12/13 01:26:28;;;;;;;24.10;14.43;;;;;;;-1.79;53.94;98106.16;6986726;28;20245;-81
2022/12/13 01:29:50;;;;;;;27.57;16.30;;;;;;;-1.31;53.66;98159.59;6986389;28;20256;-82
2022/12/13 01:33:15;;;;;;;22.13;15.00;;;;;;;-1.26;53.91;98157.34;6986135;28;20207;-81
2022/12/13 01:36:37;;;;;;;25.13;15.73;;;;;;;-1.09;54.05;98151.28;6986417;28;20211;-81
2022/12/13 01:39:59;;;;;;;26.60;16.03;;;;;;;-1.90;53.84;98060.63;6986027;28;20241;-81
2022/12/13 01:43:20;;;;;;;23.10;15.17;;;;;;;-1.42;54.22;98132.53;6986655;28;20206;-81
2022/12/13 01:46:42;;;;;;;27.37;16.47;;;;;;;-1.33;54.46;98126.34;6986432;28;20240;-82
2022/12/13 01:50:11;;;;;;;23.83;14.33;;;;;;;-1.16;53.20;98155.50;6985082;28;20248;-82
2022/12/13 01:53:38;;;;;;;25.47;15.90;;;;;;;-1.48;53.06;98149.81;6988243;28;20266;-84
2022/12/13 01:57:02;;;;;;;22.43;15.00;;;;;;;-1.23;53.67;98137.72;6985047;28;20206;-84
2022/12/13 02:00:25;;;;;;;26.47;15.60;;;;;;;-1.38;53.02;98112.75;6985759;28;20230;-82
2022/12/13 02:03:52;;;;;;;21.43;14.50;;;;;;;-1.04;52.70;98135.78;6985624;28;20210;-82
2022/12/13 02:07:17;;;;;;;24.57;14.43;;;;;;;-1.55;52.87;98126.78;6984707;28;20240;-83
2022/12/13 02:10:39;;;;;;;21.37;13.97;;;;;;;-1.89;53.62;98049.88;6985374;28;20230;-82
2022/12/13 02:14:01;;;;;;;26.07;15.73;;;;;;;-1.53;53.74;98106.31;6985422;28;20204;-81
2022/12/13 02:17:28;;;;;;;22.93;15.10;;;;;;;-1.71;53.55;98135.31;6984861;28;20213;-82
2022/12/13 02:21:15;;;;;;;24.30;15.57;;;;;;;-1.47;53.95;98133.00;6984857;28;20275;-81
2022/12/13 02:25:02;;;;;;;36.73;15.80;;;;;;;-1.78;54.49;98109.63;6984776;28;20683;-81
2022/12/13 02:28:41;;;;;;;23.63;14.77;;;;;;;-1.31;52.78;98130.53;6984380;28;20234;-81
2022/12/13 02:32:08;;;;;;;23.17;13.47;;;;;;;-2.34;54.73;98107.03;6976879;28;20206;-81
2022/12/13 02:35:37;;;;;;;27.33;15.70;;;;;;;-2.13;54.18;98046.13;6956354;28;20237;-81
2022/12/13 02:39:13;;;;;;;26.50;16.10;;;;;;;-1.77;53.90;98114.75;6957514;28;20234;-81
2022/12/13 02:42:54;;;;;;;21.63;14.33;;;;;;;-1.75;53.96;98115.47;6957724;28;20309;-82
2022/12/13 02:46:20;;;;;;;24.10;15.77;;;;;;;-1.79;54.26;98102.66;6957764;28;20676;-82
2022/12/13 02:49:54;;;;;;;23.77;14.60;;;;;;;-1.58;53.35;98111.19;6958790;28;20615;-82
2022/12/13 02:53:34;;;;;;;22.37;14.70;;;;;;;-1.81;53.24;98109.91;6958197;28;20203;-82
2022/12/13 02:56:56;;;;;;;22.10;14.80;;;;;;;-1.77;54.06;98101.53;6962551;28;20215;-81
2022/12/13 03:00:19;;;;;;;29.27;14.53;;;;;;;-1.60;53.38;98116.63;6963278;28;20610;-81
2022/12/13 03:03:46;;;;;;;23.10;14.53;;;;;;;-1.89;53.92;98115.91;6962822;28;20211;-81
2022/12/13 03:07:18;;;;;;;22.93;14.97;;;;;;;-1.81;53.80;98081.69;6961734;28;20535;-81
2022/12/13 03:10:46;;;;;;;24.53;14.33;;;;;;;-1.63;53.55;98109.00;6973872;28;20230;-82
2022/12/13 03:14:08;;;;;;;30.57;14.77;;;;;;;-2.15;54.01;98101.69;6988950;28;20631;-82
2022/12/13 03:17:33;;;;;;;22.50;15.17;;;;;;;-1.68;54.10;98102.47;6988381;28;20760;-82
2022/12/13 03:20:59;;;;;;;24.53;15.37;;;;;;;-1.85;53.34;98082.97;6990174;28;20208;-84
2022/12/13 03:24:22;;;;;;;21.73;13.43;;;;;;;-1.38;53.00;98097.72;6989860;28;20195;-82
2022/12/13 03:27:43;;;;;;;20.13;14.37;;;;;;;-1.54;52.57;98088.78;6988620;28;20230;-81
2022/12/13 03:31:05;;;;;;;28.90;14.80;;;;;;;-1.67;52.50;98081.19;6989265;28;20234;-82
2022/12/13 03:34:27;;;;;;;24.83;14.50;;;;;;;-1.95;53.28;98076.88;6987811;28;20214;-82
2022/12/13 03:37:49;;;;;;;21.10;14.77;;;;;;;-1.79;53.23;98066.53;6986553;28;20229;-82
2022/12/13 03:41:14;;;;;;;30.43;15.97;;;;;;;-1.62;52.94;98078.97;6987755;28;20274;-82
2022/12/13 03:44:36;;;;;;;21.17;14.60;;;;;;;-1.62;52.28;98072.81;6990465;28;20210;-81
2022/12/13 03:48:08;;;;;;;28.03;16.20;;;;;;;-2.47;54.10;98090.69;6988705;28;20237;-81
2022/12/13 03:51:30;;;;;;;25.40;14.63;;;;;;;-2.04;53.43;98084.84;6990639;28;20273;-81
2022/12/13 03:54:51;;;;;;;23.83;14.50;;;;;;;-1.96;53.39;98088.41;6989284;28;20217;-81
2022/12/13 03:58:15;;;;;;;24.73;13.80;;;;;;;-1.77;52.28;98090.16;6990346;28;20232;-81
2022/12/13 04:01:36;;;;;;;21.97;13.77;;;;;;;-1.85;52.79;98060.97;6990008;28;20217;-81
2022/12/13 04:05:00;;;;;;;26.17;16.57;;;;;;;-2.12;53.65;98029.28;6988492;28;20214;-81
2022/12/13 04:08:22;;;;;;;23.57;15.03;;;;;;;-1.87;52.83;98047.09;6989628;28;20237;-82
2022/12/13 04:15:24;;;;;;;24.33;14.90;;;;;;;-1.60;51.89;98068.25;6987593;28;20265;-81
2022/12/13 04:18:46;;;;;;;23.60;14.77;;;;;;;-2.63;52.84;98020.97;6989212;28;20494;-81
2022/12/13 04:22:08;;;;;;;22.57;15.00;;;;;;;-2.28;53.38;98072.16;6988446;28;20206;-81
2022/12/13 04:25:30;;;;;;;28.50;15.20;;;;;;;-2.12;53.23;98066.25;6987131;28;20206;-80
2022/12/13 04:28:51;;;;;;;20.77;13.53;;;;;;;-2.00;52.79;98055.38;6986822;28;20287;-80
2022/12/13 04:32:15;;;;;;;28.27;15.73;;;;;;;-1.99;52.37;98066.75;6987766;28;20658;-80
2022/12/13 04:35:36;;;;;;;25.10;16.00;;;;;;;-1.90;52.57;98048.22;6987085;28;20223;-80
2022/12/13 04:39:01;;;;;;;23.00;14.27;;;;;;;-2.03;51.92;98075.94;6987675;28;20227;-79
2022/12/13 04:42:35;;;;;;;24.90;14.27;;;;;;;-2.50;52.77;98074.28;6987610;28;20220;-80
2022/12/13 04:46:06;;;;;;;21.00;14.60;;;;;;;-2.42;53.79;98063.84;7000635;28;20207;-80
2022/12/13 04:49:33;;;;;;;24.77;15.63;;;;;;;-2.29;54.43;98053.81;6988740;28;20243;-81
2022/12/13 04:52:55;;;;;;;23.43;15.67;;;;;;;-2.11;54.47;98071.41;6988275;28;20205;-80
2022/12/13 04:56:20;;;;;;;24.23;15.13;;;;;;;-1.83;53.30;98067.78;6987299;28;20282;-81
2022/12/13 04:59:47;;;;;;;21.90;13.60;;;;;;;-1.99;52.73;98049.13;6987587;28;20225;-81
2022/12/13 05:03:09;;;;;;;23.60;14.47;;;;;;;-1.82;52.30;98048.34;6985818;28;20213;-80
2022/12/13 05:06:43;;;;;;;24.53;15.00;;;;;;;-1.98;52.58;98045.50;6985758;28;20209;-81
2022/12/13 05:10:11;;;;;;;20.70;13.87;;;;;;;-1.82;52.40;98056.28;6982188;28;20222;-80
2022/12/13 05:13:34;;;;;;;24.07;15.00;;;;;;;-1.88;52.45;98051.56;6987009;28;20190;-80
2022/12/13 05:16:56;;;;;;;21.73;14.80;;;;;;;-1.96;52.74;98019.75;6985952;28;20264;-80
2022/12/13 05:20:17;;;;;;;21.10;14.30;;;;;;;-1.98;52.60;98028.81;6984056;28;20224;-80
2022/12/13 05:23:40;;;;;;;18.90;13.07;;;;;;;-1.68;52.12;98057.56;6962653;28;20199;-82
2022/12/13 05:27:06;;;;;;;21.03;13.57;;;;;;;-1.84;52.10;98058.19;6974228;28;20233;-80
2022/12/13 05:30:30;;;;;;;20.83;13.03;;;;;;;-2.00;52.03;98052.75;6973798;28;20297;-81
2022/12/13 05:37:38;;;;;;;21.50;14.00;;;;;;;-2.56;53.31;98051.94;6974998;28;20277;-81
2022/12/13 05:41:01;;;;;;;21.03;14.10;;;;;;;-2.57;54.16;98057.34;6971836;28;20216;-81
2022/12/13 05:44:23;;;;;;;23.97;14.03;;;;;;;-2.46;54.57;98052.75;6969372;28;20337;-81
2022/12/13 05:47:44;;;;;;;24.73;14.40;;;;;;;-2.03;54.83;98049.53;6959851;28;20233;-77
2022/12/13 05:51:06;;;;;;;23.10;14.17;;;;;;;-2.29;53.64;98052.00;6969837;28;20230;-78
2022/12/13 05:54:31;;;;;;;26.53;13.47;;;;;;;-2.55;54.14;98044.88;6973269;28;20720;-78
2022/12/13 05:57:56;;;;;;;19.27;12.47;;;;;;;-2.20;53.76;98047.69;6966290;28;20252;-79
2022/12/13 06:01:18;;;;;;;24.03;14.73;;;;;;;-2.39;53.48;98016.91;6956290;28;20219;-83
2022/12/13 06:04:39;;;;;;;25.07;14.63;;;;;;;-2.30;53.48;98045.03;6964497;28;20554;-81
2022/12/13 06:08:01;;;;;;;22.93;13.97;;;;;;;-2.82;53.42;97963.00;6967168;28;20230;-81
2022/12/13 06:11:23;;;;;;;25.93;15.20;;;;;;;-2.42;53.68;98025.09;6957107;28;20221;-82
2022/12/13 06:14:54;;;;;;;24.83;14.20;;;;;;;-2.38;54.14;98038.81;6963358;28;20203;-83
2022/12/13 06:18:16;;;;;;;26.70;15.03;;;;;;;-2.43;54.25;98049.00;6967066;28;20232;-82
2022/12/13 06:21:37;;;;;;;21.40;13.93;;;;;;;-2.70;54.35;98041.84;6986117;28;20711;-82
2022/12/13 06:25:00;;;;;;;19.87;13.73;;;;;;;-2.84;53.83;97976.34;6962656;28;20224;-82
2022/12/13 06:28:28;;;;;;;23.60;15.40;;;;;;;-2.80;54.23;98059.47;6959557;28;20687;-82
2022/12/13 06:31:54;;;;;;;22.40;13.83;;;;;;;-2.32;53.65;98057.56;6965145;28;20218;-82
2022/12/13 06:35:15;;;;;;;22.73;15.57;;;;;;;-2.30;53.04;98038.97;6951313;28;20270;-84
2022/12/13 06:38:37;;;;;;;29.67;16.53;;;;;;;-2.82;54.08;98044.75;6966939;28;20313;-83
2022/12/13 06:42:02;;;;;;;25.43;15.77;;;;;;;-2.48;53.06;98044.13;6984885;28;20228;-80
2022/12/13 06:45:24;;;;;;;23.40;15.20;;;;;;;-3.10;53.23;98032.44;6987264;28;20212;-82
2022/12/13 06:48:47;;;;;;;31.53;16.57;;;;;;;-2.92;54.30;98030.75;7004648;28;20242;-82
2022/12/13 06:52:10;;;;;;;28.07;16.83;;;;;;;-2.81;53.77;98015.63;6992717;28;20229;-83
2022/12/13 06:55:32;;;;;;;32.30;16.10;;;;;;;-2.66;53.67;98045.03;6960934;28;20241;-82
2022/12/13 06:58:54;;;;;;;26.57;16.47;;;;;;;-2.64;53.38;98027.25;6976769;28;20222;-82
2022/12/13 07:02:15;;;;;;;20.83;15.23;;;;;;;-2.69;53.35;98055.84;6986907;28;20212;-82
2022/12/13 07:05:39;;;;;;;25.50;15.37;;;;;;;-2.07;52.69;98056.09;6980891;28;20240;-82
2022/12/13 07:09:00;;;;;;;27.80;15.50;;;;;;;-2.23;51.86;98064.63;6956782;28;20258;-83
2022/12/13 07:12:24;;;;;;;29.40;14.93;;;;;;;-2.32;53.14;98069.91;6954895;28;20257;-81
2022/12/13 07:15:46;;;;;;;28.80;15.47;;;;;;;-1.96;52.00;98072.56;6960987;28;20224;-86
2022/12/13 07:19:09;;;;;;;23.00;15.20;;;;;;;-1.97;51.65;98064.78;6962163;28;20226;-81
2022/12/13 07:22:33;;;;;;;21.37;13.10;;;;;;;-1.71;50.48;98065.81;6961641;28;20697;-81
2022/12/13 07:25:55;;;;;;;22.17;13.57;;;;;;;-2.07;50.71;98072.75;6956274;28;20206;-83
2022/12/13 07:29:17;;;;;;;20.73;12.17;;;;;;;-2.44;51.48;98058.72;6970931;28;20267;-83
2022/12/13 07:32:38;;;;;;;19.10;12.33;;;;;;;-2.75;51.47;98046.72;6982291;28;20285;-83
2022/12/13 07:36:00;;;;;;;15.97;12.20;;;;;;;-2.80;53.26;98071.81;6980147;28;20239;-83
2022/12/13 07:39:25;;;;;;;21.20;13.40;;;;;;;-2.61;53.68;98072.63;6982260;28;20229;-83
2022/12/13 07:42:51;;;;;;;22.07;13.40;;;;;;;-2.13;52.47;98065.41;6960103;28;20268;-83
2022/12/13 07:46:13;;;;;;;20.57;12.83;;;;;;;-2.06;52.32;98082.34;6973555;28;20577;-82
2022/12/13 07:49:35;;;;;;;18.63;13.00;;;;;;;-2.19;51.95;98091.56;6989579;28;20228;-81
2022/12/13 07:53:13;;;;;;;21.87;13.37;;;;;;;-2.41;53.42;98090.09;6997059;28;20205;-82
2022/12/13 07:56:56;;;;;;;22.43;13.20;;;;;;;-2.18;52.91;98093.25;7016613;28;20221;-81
2022/12/13 08:00:24;;;;;;;21.63;13.20;;;;;;;-2.48;52.72;98027.50;6963946;28;20482;-82
2022/12/13 08:03:47;;;;;;;20.63;12.37;;;;;;;-2.41;54.37;98099.81;6956097;28;20575;-83
2022/12/13 08:07:10;;;;;;;24.77;13.97;;;;;;;-2.46;53.74;98099.41;6952302;28;20218;-84
2022/12/13 08:10:32;;;;;;;20.87;12.43;;;;;;;-2.18;53.00;98095.88;6957910;28;20705;-84
2022/12/13 08:14:07;;;;;;;22.73;13.00;;;;;;;-2.40;53.48;98065.38;6959329;28;20232;-83
2022/12/13 08:17:31;;;;;;;22.47;13.57;;;;;;;-1.99;53.53;98095.81;6962003;28;20203;-83
2022/12/13 08:20:58;;;;;;;21.13;12.80;;;;;;;-1.42;53.12;98109.56;6962665;28;20265;-84
2022/12/13 08:24:20;;;;;;;20.17;12.70;;;;;;;-1.06;51.65;98105.19;6964156;28;20225;-83
2022/12/13 08:27:42;;;;;;;18.70;11.93;;;;;;;-1.04;52.18;98098.78;6962820;28;20229;-83
2022/12/13 08:31:07;;;;;;;18.50;12.97;;;;;;;-0.93;52.18;98089.75;6962085;28;20313;-83
2022/12/13 08:34:30;;;;;;;19.73;12.40;;;;;;;-0.78;50.28;98059.16;6969943;28;20195;-83
2022/12/13 08:37:55;;;;;;;23.73;13.30;;;;;;;-0.67;50.65;98082.75;6983475;28;20224;-83
2022/12/13 08:41:17;;;;;;;18.87;12.27;;;;;;;0.70;49.01;98093.94;6962934;28;20619;-83
2022/12/13 08:44:42;;;;;;;25.00;13.13;;;;;;;0.83;48.87;98084.53;6963743;28;20213;-84
2022/12/13 08:48:06;;;;;;;18.43;12.20;;;;;;;1.05;46.92;98081.28;6961151;28;20270;-82
2022/12/13 08:51:31;;;;;;;21.50;13.10;;;;;;;0.82;47.75;98088.19;6974910;28;20232;-83
2022/12/13 08:54:53;;;;;;;18.93;13.30;;;;;;;1.11;47.29;98091.25;6989182;28;20218;-84
2022/12/13 08:58:29;;;;;;;20.93;12.43;;;;;;;0.64;48.09;98092.78;6990965;28;20240;-83
2022/12/13 09:02:13;;;;;;;19.13;12.33;;;;;;;0.49;48.42;98090.91;6977386;28;20206;-83
2022/12/13 09:05:41;;;;;;;20.13;13.60;;;;;;;0.01;49.79;98024.44;6977663;28;20206;-83
2022/12/13 09:09:03;;;;;;;20.33;13.70;;;;;;;0.12;50.63;98088.56;6983309;28;20678;-83
2022/12/13 09:12:25;;;;;;;19.67;13.20;;;;;;;0.33;49.62;98096.97;6990314;28;20241;-82
2022/12/13 09:15:47;;;;;;;21.93;14.30;;;;;;;-0.26;51.04;98098.75;6991092;28;20264;-83
2022/12/13 09:19:09;;;;;;;21.07;13.10;;;;;;;0.12;51.45;98059.41;6989302;28;20230;-83
2022/12/13 09:22:32;;;;;;;17.37;12.17;;;;;;;1.19;48.91;98072.66;6988585;28;20314;-84
2022/12/13 09:25:55;;;;;;;20.57;12.67;;;;;;;0.41;49.28;98028.06;7014702;28;20217;-84
2022/12/13 09:29:21;;;;;;;15.97;11.33;;;;;;;0.86;48.76;98078.94;6981377;28;20238;-83
2022/12/13 09:32:48;;;;;;;21.80;12.43;;;;;;;1.30;47.79;98053.75;6960452;28;20199;-84
2022/12/13 09:36:12;;;;;;;17.17;12.50;;;;;;;0.75;48.20;98075.72;6964382;28;20238;-84
2022/12/13 09:39:39;;;;;;;18.60;11.67;;;;;;;1.47;47.28;98068.69;6982814;28;20222;-84
2022/12/13 09:43:04;;;;;;;19.87;12.03;;;;;;;0.95;49.35;98080.59;6982996;28;20207;-83
2022/12/13 09:46:32;;;;;;;19.77;11.33;;;;;;;0.81;48.57;98077.72;6978286;28;20198;-82
2022/12/13 09:49:54;;;;;;;20.50;12.63;;;;;;;1.22;47.97;98027.22;6976000;28;20286;-83
2022/12/13 09:53:18;;;;;;;21.77;12.37;;;;;;;0.79;48.60;98077.06;6976217;28;20202;-82
2022/12/13 09:56:49;;;;;;;19.70;12.90;;;;;;;1.04;47.99;98021.25;6972305;28;20213;-83
2022/12/13 10:00:15;;;;;;;17.33;12.73;;;;;;;1.20;48.85;98034.50;7008804;28;20221;-82
2022/12/13 10:03:36;;;;;;;18.03;13.50;;;;;;;1.03;48.67;98067.34;6981997;28;20684;-83
2022/12/13 10:07:02;;;;;;;18.67;11.87;;;;;;;1.02;50.68;98070.97;6974040;28;20262;-86
2022/12/13 10:10:24;;;;;;;20.97;12.67;;;;;;;1.06;47.93;98040.47;6971046;28;20229;-83
2022/12/13 10:13:50;;;;;;;16.33;9.63;;;;;;;1.49;47.97;98053.41;6962727;28;20203;-83
2022/12/13 10:17:18;;;;;;;19.97;11.97;;;;;;;0.94;47.99;98007.28;6953688;28;20733;-82
2022/12/13 10:20:41;;;;;;;18.00;11.80;;;;;;;1.43;47.41;98053.28;6957804;28;20227;-82
2022/12/13 10:24:14;;;;;;;15.60;11.17;;;;;;;1.15;48.21;98036.84;6953422;28;20238;-81
2022/12/13 10:27:37;;;;;;;19.07;11.07;;;;;;;1.61;46.73;98049.41;6972383;28;20206;-79
2022/12/13 10:31:01;;;;;;;15.83;10.87;;;;;;;2.02;46.46;98044.88;6945787;28;20294;-78
2022/12/13 10:34:26;;;;;;;18.43;12.27;;;;;;;1.93;46.58;98025.47;6956712;28;20214;-82
2022/12/13 10:37:52;;;;;;;17.53;10.97;;;;;;;2.05;45.80;98024.09;6960644;28;20205;-82
2022/12/13 10:41:33;;;;;;;17.03;10.93;;;;;;;2.47;45.90;98029.91;6968509;28;20203;-82
2022/12/13 10:45:15;;;;;;;16.60;11.43;;;;;;;2.54;45.05;98027.41;6981512;28;20210;-83
2022/12/13 10:48:39;;;;;;;17.10;11.93;;;;;;;2.42;44.60;98016.31;6973711;28;20250;-77
2022/12/13 10:52:08;;;;;;;17.33;10.80;;;;;;;2.21;46.62;98032.03;6988059;28;20233;-82
2022/12/13 10:55:34;;;;;;;14.17;10.70;;;;;;;2.28;46.12;97984.28;6962498;28;20214;-81
2022/12/13 10:59:09;;;;;;;16.77;10.90;;;;;;;2.45;44.96;98007.16;6972900;28;20286;-81
2022/12/13 11:02:33;;;;;;;19.17;10.97;;;;;;;1.97;46.01;98013.50;6965192;28;20229;-82
2022/12/13 11:06:16;;;;;;;17.77;11.70;;;;;;;1.67;47.24;98016.88;6971417;28;20199;-80
2022/12/13 11:09:38;;;;;;;15.87;10.30;;;;;;;1.67;46.79;98005.44;6975786;28;20387;-81
2022/12/13 11:13:04;;;;;;;16.50;10.60;;;;;;;1.17;48.18;97996.84;6982606;28;20210;-81
2022/12/13 11:16:35;;;;;;;16.93;10.60;;;;;;;1.94;47.26;98020.97;6992365;28;20210;-81
2022/12/13 11:19:58;;;;;;;16.33;11.10;;;;;;;2.11;45.75;98020.75;6982940;28;20249;-82
2022/12/13 11:23:27;;;;;;;18.00;11.47;;;;;;;2.19;45.90;97998.63;6991905;28;20207;-80
2022/12/13 11:26:54;;;;;;;17.53;10.93;;;;;;;2.33;45.96;97993.41;6975021;28;20221;-81
2022/12/13 11:30:19;;;;;;;16.60;11.17;;;;;;;3.38;44.86;97993.53;6969797;28;20247;-82
2022/12/13 11:33:49;;;;;;;14.83;10.23;;;;;;;2.93;44.29;97943.81;6955541;28;20207;-83
2022/12/13 11:37:18;;;;;;;17.00;11.93;;;;;;;2.93;43.83;97966.94;6955703;28;20611;-83
2022/12/13 11:40:44;;;;;;;17.93;11.73;;;;;;;2.26;46.41;97980.97;6986344;28;20691;-83
2022/12/13 11:44:42;;;;;;;15.73;11.10;;;;;;;2.94;45.70;97977.41;6975870;28;20213;-83
2022/12/13 11:48:13;;;;;;;16.53;10.50;;;;;;;3.16;44.44;97941.94;6916346;28;20255;-83
2022/12/13 11:51:40;;;;;;;19.03;10.80;;;;;;;2.86;44.84;97977.47;6980531;28;20202;-82
2022/12/13 11:55:05;;;;;;;14.53;10.47;;;;;;;2.51;45.60;97958.56;6989872;28;20749;-81
2022/12/13 11:58:36;;;;;;;15.17;11.50;;;;;;;2.80;45.28;97951.56;6989801;28;20242;-83
2022/12/13 12:02:13;;;;;;;18.80;10.73;;;;;;;3.38;44.31;97953.56;6989407;28;20216;-86
2022/12/13 12:05:37;;;;;;;12.93;9.60;;;;;;;3.64;43.27;97952.13;6989931;28;20194;-82
2022/12/13 12:09:00;;;;;;;17.33;10.50;;;;;;;3.02;43.77;97917.94;6981360;28;20308;-81
2022/12/13 12:12:26;;;;;;;20.20;10.50;;;;;;;3.43;44.12;97952.00;6983756;28;20214;-82
2022/12/13 12:15:52;;;;;;;13.77;9.60;;;;;;;3.83;42.27;97961.44;6986537;28;20419;-78
2022/12/13 12:19:16;;;;;;;13.90;10.20;;;;;;;2.67;44.61;97959.28;6983069;28;20252;-83
2022/12/13 12:22:42;;;;;;;15.83;11.00;;;;;;;3.27;43.48;97960.16;6981820;28;20210;-83
2022/12/13 12:26:06;;;;;;;14.13;10.30;;;;;;;3.12;43.73;97923.84;6977123;28;20335;-78
2022/12/13 12:29:51;;;;;;;16.07;10.83;;;;;;;3.57;43.17;97945.88;6962014;28;20348;-80
2022/12/13 12:33:24;;;;;;;14.67;9.80;;;;;;;2.98;44.77;97956.56;6951296;28;20242;-81
2022/12/13 12:36:54;;;;;;;14.73;10.87;;;;;;;4.39;41.33;97931.38;6950498;28;20202;-78
2022/12/13 12:40:48;;;;;;;14.33;10.13;;;;;;;3.18;43.54;97947.09;6996883;28;20267;-80
2022/12/13 12:44:17;;;;;;;17.40;9.97;;;;;;;3.79;42.01;97904.16;6987975;28;20217;-81
2022/12/13 12:47:46;;;;;;;16.33;11.07;;;;;;;3.90;42.86;97903.72;6976929;28;20198;-80
2022/12/13 12:51:11;;;;;;;17.77;10.53;;;;;;;3.75;42.46;97934.84;6976899;28;20225;-80
2022/12/13 12:54:47;;;;;;;15.30;10.67;;;;;;;3.06;43.10;97917.41;6960403;28;20211;-80
2022/12/13 12:58:15;;;;;;;13.13;9.17;;;;;;;3.40;43.04;97947.06;6950779;28;20230;-81
2022/12/13 13:01:50;;;;;;;17.43;10.23;;;;;;;4.50;41.87;97918.41;6958749;28;20205;-78
2022/12/13 13:05:18;;;;;;;15.77;10.50;;;;;;;4.19;41.49;97907.13;6976735;28;20624;-79
2022/12/13 13:08:44;;;;;;;15.73;10.30;;;;;;;4.27;42.08;97919.56;6970999;28;20230;-80
2022/12/13 13:12:07;;;;;;;14.17;9.63;;;;;;;4.52;40.26;97880.81;6970222;28;20211;-78
2022/12/13 13:15:59;;;;;;;13.67;9.13;;;;;;;4.86;40.10;97908.50;6976382;28;20202;-78
2022/12/13 13:19:43;;;;;;;13.33;9.27;;;;;;;5.23;39.49;97894.00;6920913;28;20232;-79
2022/12/13 13:23:14;;;;;;;12.20;8.63;;;;;;;5.26;38.72;97899.78;6954797;28;20345;-79
2022/12/13 13:26:38;;;;;;;13.07;9.63;;;;;;;4.70;40.14;97908.75;6977293;28;20186;-78
2022/12/13 13:30:05;;;;;;;14.03;8.73;;;;;;;4.14;40.06;97906.88;6958703;28;20369;-78
2022/12/13 13:33:43;;;;;;;14.00;9.30;;;;;;;4.24;41.40;97896.75;6951909;28;20292;-78
2022/12/13 13:37:13;;;;;;;17.03;8.83;;;;;;;4.83;39.73;97887.50;6950008;28;20255;-78
2022/12/13 13:40:36;;;;;;;13.27;8.23;;;;;;;4.51;40.07;97887.19;6996860;28;20656;-78
2022/12/13 13:44:01;;;;;;;12.27;8.57;;;;;;;4.45;39.94;97886.13;7005867;28;20201;-80
2022/12/13 13:47:44;;;;;;;12.87;8.20;;;;;;;4.46;39.62;97898.44;7005562;28;20221;-78
2022/12/13 13:51:26;;;;;;;12.30;7.97;;;;;;;4.47;39.27;97900.09;7000658;28;20305;-78
2022/12/13 13:55:31;;;;;;;14.13;8.67;;;;;;;4.46;39.11;97911.78;7004070;28;20221;-78
2022/12/13 13:59:18;;;;;;;11.60;8.53;;;;;;;4.95;37.54;97891.31;7005871;28;20273;-79
2022/12/13 14:03:15;;;;;;;12.27;9.20;;;;;;;5.10;38.18;97889.41;7004963;28;20223;-78
2022/12/13 14:06:59;;;;;;;15.43;10.27;;;;;;;4.18;39.00;97900.16;7005515;28;20689;-77
2022/12/13 14:10:32;;;;;;;13.73;7.60;;;;;;;4.01;38.76;97881.91;7005017;28;20266;-78
2022/12/13 14:14:30;;;;;;;13.33;9.03;;;;;;;4.03;40.05;97902.03;7005055;28;20221;-78
2022/12/13 14:18:28;;;;;;;12.67;8.10;;;;;;;4.49;38.26;97905.25;7005164;28;20212;-78
2022/12/13 14:21:57;;;;;;;11.23;8.40;;;;;;;4.60;38.45;97873.53;7005425;28;20193;-78
2022/12/13 14:25:41;;;;;;;10.07;7.67;;;;;;;4.65;37.14;97872.97;6960151;28;20196;-78
2022/12/13 14:29:04;;;;;;;9.77;8.27;;;;;;;4.83;38.13;97878.69;6972135;28;20232;-79
2022/12/13 14:32:28;;;;;;;14.37;8.40;;;;;;;4.63;37.62;97907.88;6996875;28;20290;-78
2022/12/13 14:35:54;;;;;;;10.93;8.37;;;;;;;4.57;38.82;97903.28;6955458;28;20207;-78
2022/12/13 14:39:17;;;;;;;12.13;8.50;;;;;;;4.61;38.49;97879.69;6951243;28;20234;-79
2022/12/13 14:42:53;;;;;;;11.53;8.23;;;;;;;4.90;38.05;97898.28;6952275;28;20230;-81
2022/12/13 14:46:16;;;;;;;11.87;8.03;;;;;;;5.03;38.02;97893.88;6955932;28;20234;-78
2022/12/13 14:49:39;;;;;;;11.63;8.07;;;;;;;4.93;37.96;97895.19;6984584;28;20239;-78
2022/12/13 14:53:02;;;;;;;12.63;8.87;;;;;;;5.07;37.95;97897.78;6987620;28;20210;-78
2022/12/13 14:56:25;;;;;;;11.80;7.93;;;;;;;5.13;37.91;97907.72;6988655;28;20221;-78
2022/12/13 14:59:51;;;;;;;10.17;7.70;;;;;;;4.87;37.51;97874.59;6970788;28;20223;-81
2022/12/13 15:03:21;;;;;;;11.30;8.10;;;;;;;4.46;37.93;97889.59;6955328;28;20249;-78
2022/12/13 15:06:43;;;;;;;14.23;9.50;;;;;;;3.94;39.70;97884.47;6953916;28;20237;-79
2022/12/13 15:10:19;;;;;;;13.00;10.07;;;;;;;4.59;38.72;97879.03;6955529;28;20585;-80
2022/12/13 15:13:43;;;;;;;12.67;9.83;;;;;;;4.29;38.25;97880.16;6959467;28;20210;-79
2022/12/13 15:17:05;;;;;;;15.53;9.30;;;;;;;3.50;40.36;97886.34;6978634;28;20209;-79
2022/12/13 15:20:31;;;;;;;13.60;10.07;;;;;;;3.20;40.91;97894.47;6974367;28;20223;-79
2022/12/13 15:23:53;;;;;;;13.23;9.10;;;;;;;3.83;40.78;97894.81;6965418;28;20661;-81
2022/12/13 15:27:15;;;;;;;12.07;8.30;;;;;;;3.60;40.78;97865.56;6960472;28;20210;-80
2022/12/13 15:30:39;;;;;;;12.23;9.20;;;;;;;3.29;40.71;97856.09;6978786;28;20298;-80
2022/12/13 15:34:22;;;;;;;10.70;8.77;;;;;;;3.42;41.40;97873.09;6980713;28;20772;-81
2022/12/13 15:37:46;;;;;;;14.57;8.60;;;;;;;3.76;40.83;97867.19;6981080;28;20245;-81
2022/12/13 15:41:15;;;;;;;12.90;8.83;;;;;;;3.89;40.28;97838.88;6981504;28;20209;-81
2022/12/13 15:44:44;;;;;;;11.97;8.97;;;;;;;3.40;41.17;97821.84;6979488;28;20205;-81
2022/12/13 15:48:18;;;;;;;16.27;10.17;;;;;;;3.75;40.63;97863.72;6979796;28;20224;-81
2022/12/13 15:51:54;;;;;;;14.63;9.43;;;;;;;3.49;41.29;97858.03;6980194;28;20292;-80
2022/12/13 15:55:25;;;;;;;11.97;9.17;;;;;;;3.27;41.57;97815.50;6980575;28;20218;-81
2022/12/13 15:58:52;;;;;;;13.20;9.17;;;;;;;3.35;41.25;97853.53;6976445;28;20236;-81
2022/12/13 16:02:17;;;;;;;27.53;15.87;;;;;;;3.27;42.28;97807.50;6955750;28;20315;-82
2022/12/13 16:05:42;;;;;;;18.23;12.63;;;;;;;2.87;42.42;97802.63;6957268;28;20203;-81